Ana Sayfa
METAR-TAF:

METAR-TAF

Havaalanları :

Minocqua / Woodruff, Wisconsin, Amerika Birleşik Devletleri

Enlem: 45-56N, Boylam: 089-44W, yükseklik: 496 m

Güncel hava durumu gözlemi

Rapor saat 08:35 UTC de 22 dakika önce yapıldı.
Rüzgar güneydan 3 kt
Sıcaklık 14°C
Nem 88%
Basınç 1007 hPa
Görüş mesafesi: 0.8 km
100 ft yükseklikte çok bulutlu
sis

METAR: KARV 250835Z AUTO 17003KT 1/2SM FG OVC001 14/12 A2974 RMK AO2 T01380123

Saat: 03:57 (08:57 UTC)


TAF: eksik

4.000'den fazla havaalanı için hava durumu gözlemleri ve tahminleri (METAR ve TAF raporları).

Kullanılabilir istasyonlar harita üzerinde sarı ve kırmızı noktalarla gösterilir.

İstasyonun adını görmek için fareyi noktanın üzerinde gezdirin.

Sonrasında hava gözlem ve tahminlerini görmek için tıklayın.

Haritayı değiştirmek için: yaklaştırmak için siyah artı işaretli yeşil düğmeye ve uzaklaştırmak için de eksi işaretli düğmeye hızla tıklayın; bitişik haritalar için yeşil okları kullanın.


METAR-TAF: